Hutchinson County Airport - Borger, Texas, United States - FAA: BGD - ICAO: KBGD - IATA: BGD

 
  Longest Runway: 6,300 feet   Approach Types:    Customs Landing Rights Airport: No   Port of Entry: No

Local Forecast

Today (6/25): Sunny and hot, with a high near 97. South wind 10 to 15 mph, with gusts as high as 25 mph.

Tonight (6/25): A 20 percent chance of showers and thunderstorms. Mostly cloudy, with a low around 71. South wind 15 to 20 mph decreasing to 5 to 10 mph after midnight. Winds could gust as high as 25 mph.

Sunday (6/26): A 40 percent chance of showers and thunderstorms, mainly after 1pm. Partly sunny, with a high near 92. South southeast wind 5 to 10 mph.

Sunday Night (6/26): A 40 percent chance of showers and thunderstorms. Mostly cloudy, with a low around 71. South southeast wind 5 to 10 mph.

Monday (6/27): A 30 percent chance of showers and thunderstorms. Mostly sunny, with a high near 90. Southwest wind around 5 mph becoming south southeast in the afternoon.

Monday Night (6/27): A 30 percent chance of showers and thunderstorms. Mostly cloudy, with a low around 69. Southeast wind 5 to 10 mph.

Tuesday (6/28): A 30 percent chance of showers and thunderstorms. Mostly sunny, with a high near 89. North wind 5 to 10 mph becoming east southeast in the afternoon.



Current Weather (METAR)

2016/06/25 11:51 KBGD 251151Z AUTO VRB06KT 10SM CLR 24/14 A3000 RMK AO2 SLP110 T02390144 10267 20239 53004

BORGER HUTCHINSON CO AIRPORT , TX, United States (KBGD) 35-42N 101-24W 927M Jun 25, 2016 - 07:51 AM EDT / 2016.06.25 1151 UTC Wind: Variable at 7 MPH (6 KT):0 Visibility: 10 mile(s):0 Sky conditions: clear Temperature: 75.0 F (23.9 C) Dew Point: 57.9 F (14.4 C) Relative Humidity: 55% Pressure (altimeter): 30 in. Hg (1015 hPa) Pressure tendency: 0.01 inches (0.4 hPa) higher than three hours ago ob: KBGD 251151Z AUTO VRB06KT 10SM CLR 24/14 A3000 RMK AO2 SLP110 T02390144 10267 20239 53004 cycle: 12

Terminal Forecast (TAF)